Time;durP1;ratioP1;P1;durP2;ratioP2;P2;SDS_P1;SDS_P2;PMS_P1;PMS_P2;Temp;Humidity;BMP_temperature;BMP_pressure;BME280_temperature;BME280_humidity;BME280_pressure;Samples;Min_cycle;Max_cycle;Signal;HPM_P1;HPM_P2
2022/04/18 00:01:39;;;;;;;25.70;13.90;;;6.30;59.30;;;;;;5034879;28;20041;-66
2022/04/18 00:04:05;;;;;;;25.10;14.80;;;6.20;59.80;;;;;;5036668;28;20039;-65
2022/04/18 00:06:35;;;;;;;23.40;14.43;;;6.30;60.10;;;;;;5032165;28;20045;-65
2022/04/18 00:09:01;;;;;;;22.92;15.07;;;6.10;60.40;;;;;;5033857;28;20060;-65
2022/04/18 00:11:26;;;;;;;30.35;14.80;;;6.10;60.50;;;;;;5035685;28;20080;-67
2022/04/18 00:13:52;;;;;;;29.13;15.05;;;6.00;60.40;;;;;;5034052;28;20044;-65
2022/04/18 00:16:18;;;;;;;28.77;15.93;;;6.00;60.90;;;;;;5038907;28;20075;-65
2022/04/18 00:18:43;;;;;;;26.38;15.75;;;5.90;60.90;;;;;;5030938;28;20065;-64
2022/04/18 00:21:09;;;;;;;27.63;15.98;;;5.80;61.40;;;;;;5034897;28;20041;-65
2022/04/18 00:23:35;;;;;;;24.23;14.70;;;5.70;61.70;;;;;;5036449;28;20099;-65
2022/04/18 00:26:00;;;;;;;25.85;15.30;;;5.60;62.00;;;;;;5033065;28;20041;-67
2022/04/18 00:28:26;;;;;;;27.17;15.10;;;5.50;62.20;;;;;;5036979;28;20045;-67
2022/04/18 00:30:53;;;;;;;28.50;15.85;;;5.50;62.30;;;;;;5029850;28;20132;-64
2022/04/18 00:33:18;;;;;;;27.30;15.55;;;5.40;62.60;;;;;;5027041;28;20473;-65
2022/04/18 00:35:44;;;;;;;26.08;15.23;;;5.40;62.70;;;;;;5032729;28;20029;-66
2022/04/18 00:38:09;;;;;;;24.30;14.27;;;5.30;62.70;;;;;;5037044;28;20033;-66
2022/04/18 00:40:35;;;;;;;24.60;14.93;;;5.40;63.10;;;;;;5035674;28;20132;-66
2022/04/18 00:43:05;;;;;;;26.65;15.48;;;5.30;63.10;;;;;;5037236;28;20119;-65
2022/04/18 00:45:31;;;;;;;27.92;15.27;;;5.30;63.80;;;;;;5040118;28;20080;-66
2022/04/18 00:47:57;;;;;;;25.17;15.82;;;5.30;63.80;;;;;;5039764;28;20041;-66
2022/04/18 00:50:24;;;;;;;27.80;15.38;;;5.30;63.80;;;;;;5032421;28;21045;-65
2022/04/18 00:52:53;;;;;;;26.25;15.35;;;5.30;64.70;;;;;;5038309;28;20127;-66
2022/04/18 00:55:20;;;;;;;27.50;16.05;;;5.30;64.70;;;;;;5041336;28;20088;-66
2022/04/18 00:57:48;;;;;;;25.35;15.77;;;5.30;65.00;;;;;;5032435;28;20066;-65
2022/04/18 01:00:14;;;;;;;30.70;15.82;;;5.30;65.10;;;;;;5033580;28;20052;-65
2022/04/18 01:02:39;;;;;;;29.13;16.33;;;5.20;64.90;;;;;;5036316;28;20068;-66
2022/04/18 01:05:06;;;;;;;27.00;16.60;;;5.20;65.00;;;;;;5035969;28;20045;-67
2022/04/18 01:07:34;;;;;;;35.40;18.13;;;5.10;64.80;;;;;;5036281;28;20048;-66
2022/04/18 01:10:01;;;;;;;31.95;18.08;;;5.10;65.10;;;;;;5036933;28;20041;-65
2022/04/18 01:12:26;;;;;;;29.25;17.33;;;5.00;65.10;;;;;;5038901;28;20454;-65
2022/04/18 01:14:52;;;;;;;28.60;15.95;;;5.00;65.40;;;;;;5036308;28;20033;-66
2022/04/18 01:17:17;;;;;;;27.50;15.55;;;4.90;65.50;;;;;;5034767;28;21023;-65
2022/04/18 01:19:43;;;;;;;27.20;14.45;;;4.90;65.70;;;;;;5034538;28;20033;-65
2022/04/18 01:22:10;;;;;;;27.30;14.73;;;4.90;65.60;;;;;;5037926;28;20542;-65
2022/04/18 01:30:07;;;;;;;22.98;14.18;;;4.90;65.60;;;;;;5032792;28;20103;-65
2022/04/18 01:32:33;;;;;;;23.85;13.57;;;4.80;65.60;;;;;;5038974;28;20041;-65
2022/04/18 01:34:59;;;;;;;23.30;13.52;;;4.90;66.10;;;;;;5034618;28;20048;-65
2022/04/18 01:37:24;;;;;;;25.10;14.88;;;4.80;65.80;;;;;;5035179;28;20029;-65
2022/04/18 01:39:50;;;;;;;26.55;15.70;;;4.90;65.70;;;;;;5032823;28;20045;-65
2022/04/18 01:42:16;;;;;;;28.30;15.48;;;5.00;65.80;;;;;;5035006;28;20178;-65
2022/04/18 01:44:42;;;;;;;29.65;16.30;;;5.00;66.00;;;;;;5038218;28;20059;-66
2022/04/18 01:47:08;;;;;;;27.13;15.75;;;5.10;65.30;;;;;;5033384;28;20049;-66
2022/04/18 01:49:34;;;;;;;33.30;17.35;;;5.00;65.20;;;;;;5033351;28;20041;-65
2022/04/18 01:51:59;;;;;;;30.20;16.42;;;5.00;65.10;;;;;;5034613;28;20061;-66
2022/04/18 01:54:25;;;;;;;32.08;17.95;;;5.10;65.10;;;;;;5036244;28;20050;-65
2022/04/18 01:56:51;;;;;;;31.20;17.35;;;5.10;65.00;;;;;;5032518;28;20171;-65
2022/04/18 01:59:16;;;;;;;31.60;17.67;;;5.20;64.90;;;;;;5034919;28;20124;-65
2022/04/18 02:01:42;;;;;;;28.52;16.88;;;5.10;65.10;;;;;;5032111;28;20073;-66
2022/04/18 02:04:08;;;;;;;31.73;16.35;;;5.10;65.20;;;;;;5037055;28;20553;-66
2022/04/18 02:06:34;;;;;;;28.15;14.90;;;5.10;65.20;;;;;;5029779;28;20069;-65
2022/04/18 02:09:00;;;;;;;24.98;15.07;;;5.00;65.40;;;;;;5033417;28;20052;-66
2022/04/18 02:11:26;;;;;;;30.05;15.45;;;5.10;65.40;;;;;;5042871;28;20139;-65
2022/04/18 02:13:52;;;;;;;27.23;15.07;;;5.00;65.60;;;;;;5040167;28;20104;-65
2022/04/18 02:16:18;;;;;;;27.83;15.40;;;5.00;66.00;;;;;;5028253;28;20380;-66
2022/04/18 02:18:44;;;;;;;28.25;15.63;;;5.00;65.80;;;;;;5034096;28;20040;-65
2022/04/18 02:21:12;;;;;;;22.60;14.15;;;4.90;65.90;;;;;;5037210;28;20058;-66
2022/04/18 02:23:41;;;;;;;24.42;14.45;;;4.90;65.80;;;;;;5036499;28;20047;-66
2022/04/18 02:26:07;;;;;;;24.50;13.38;;;4.90;66.10;;;;;;5036708;28;20163;-67
2022/04/18 02:28:33;;;;;;;26.83;14.80;;;4.80;66.00;;;;;;5037627;28;20045;-67
2022/04/18 02:30:59;;;;;;;23.95;14.10;;;4.70;66.40;;;;;;5035940;28;20087;-65
2022/04/18 02:33:24;;;;;;;24.08;15.25;;;4.70;66.60;;;;;;5028386;28;20049;-65
2022/04/18 02:35:50;;;;;;;29.25;15.70;;;4.60;66.70;;;;;;5034194;28;20534;-65
2022/04/18 02:38:17;;;;;;;26.90;15.57;;;4.60;66.70;;;;;;5034711;28;20056;-65
2022/04/18 02:40:43;;;;;;;30.15;16.60;;;4.50;66.90;;;;;;5033946;28;20040;-66
2022/04/18 02:43:09;;;;;;;30.85;17.38;;;4.50;67.00;;;;;;5030093;28;20489;-67
2022/04/18 02:45:34;;;;;;;27.80;16.33;;;4.50;67.10;;;;;;5035813;28;20178;-65
2022/04/18 02:48:00;;;;;;;33.72;16.27;;;4.50;67.10;;;;;;5032379;28;20369;-67
2022/04/18 02:50:26;;;;;;;31.58;15.73;;;4.60;67.00;;;;;;5031267;28;20051;-65
2022/04/18 02:52:52;;;;;;;28.38;15.60;;;4.60;67.70;;;;;;5041572;28;20068;-66
2022/04/18 02:55:18;;;;;;;25.00;14.43;;;4.60;66.60;;;;;;5038894;28;20393;-65
2022/04/18 02:57:44;;;;;;;29.67;15.70;;;4.70;66.40;;;;;;5036876;28;20040;-66
2022/04/18 03:00:10;;;;;;;26.38;14.35;;;4.70;66.40;;;;;;5032592;28;20040;-65
2022/04/18 03:02:37;;;;;;;25.65;13.70;;;4.60;66.40;;;;;;5037192;28;20378;-65
2022/04/18 03:05:05;;;;;;;25.27;14.13;;;4.70;66.30;;;;;;5034258;28;20053;-66
2022/04/18 03:07:31;;;;;;;23.42;13.98;;;4.70;66.00;;;;;;5035022;28;20393;-66
2022/04/18 03:09:57;;;;;;;23.20;14.48;;;4.80;65.90;;;;;;5032177;28;20082;-65
2022/04/18 03:12:23;;;;;;;25.13;14.02;;;4.80;66.00;;;;;;5035696;28;20462;-66
2022/04/18 03:14:49;;;;;;;19.92;12.93;;;4.70;66.10;;;;;;5035868;28;20131;-65
2022/04/18 03:17:15;;;;;;;21.77;14.02;;;4.60;66.40;;;;;;5031961;28;20627;-66
2022/04/18 03:19:41;;;;;;;23.60;13.77;;;4.70;66.40;;;;;;5040487;28;20053;-65
2022/04/18 03:22:07;;;;;;;24.10;13.80;;;4.60;66.30;;;;;;5031543;28;20048;-65
2022/04/18 03:24:33;;;;;;;28.02;13.63;;;4.60;66.10;;;;;;5031257;28;20052;-67
2022/04/18 03:27:03;;;;;;;23.30;13.57;;;4.60;66.20;;;;;;5023408;28;20083;-66
2022/04/18 03:29:29;;;;;;;25.25;14.70;;;4.60;66.40;;;;;;5033010;28;20135;-67
2022/04/18 03:31:55;;;;;;;24.33;13.15;;;4.50;66.40;;;;;;5033297;28;20056;-66
2022/04/18 03:34:21;;;;;;;23.40;14.30;;;4.40;66.80;;;;;;5038151;28;20404;-66
2022/04/18 03:42:15;;;;;;;26.80;14.23;;;4.30;67.30;;;;;;5038358;28;20061;-67
2022/04/18 03:44:43;;;;;;;24.90;13.13;;;4.20;67.30;;;;;;5029230;28;20132;-65
2022/04/18 03:47:15;;;;;;;24.00;14.02;;;4.20;67.50;;;;;;5043782;28;20114;-66
2022/04/18 03:49:41;;;;;;;21.55;13.90;;;4.20;67.80;;;;;;5042329;28;20067;-67
2022/04/18 03:52:08;;;;;;;24.90;14.25;;;4.20;67.90;;;;;;5028762;28;20068;-66
2022/04/18 03:54:39;;;;;;;27.60;13.57;;;4.20;67.80;;;;;;5029730;28;20081;-66
2022/04/18 03:57:05;;;;;;;24.50;13.95;;;4.30;67.90;;;;;;5014176;28;20034;-66
2022/04/18 03:59:31;;;;;;;21.38;12.85;;;4.30;67.60;;;;;;5030562;28;21292;-67
2022/04/18 04:01:56;;;;;;;23.90;13.57;;;4.40;67.30;;;;;;5033931;28;20067;-66
2022/04/18 04:04:22;;;;;;;22.70;13.32;;;4.40;67.20;;;;;;5031335;28;20456;-66
2022/04/18 04:06:47;;;;;;;24.23;12.43;;;4.40;67.20;;;;;;5035553;28;20035;-67
2022/04/18 04:09:13;;;;;;;22.77;12.70;;;4.40;67.20;;;;;;5033605;28;20128;-66
2022/04/18 04:11:38;;;;;;;21.02;12.80;;;4.50;66.80;;;;;;5035098;28;20049;-67
2022/04/18 04:14:04;;;;;;;22.63;12.88;;;4.50;66.50;;;;;;5039409;28;20064;-65
2022/04/18 04:16:30;;;;;;;21.52;12.80;;;4.60;66.60;;;;;;5037735;28;20025;-64
2022/04/18 04:18:56;;;;;;;20.60;12.90;;;4.60;66.30;;;;;;5036213;28;20401;-66
2022/04/18 04:21:21;;;;;;;23.65;12.73;;;4.60;66.10;;;;;;5035989;28;20116;-67
2022/04/18 04:23:47;;;;;;;19.50;12.35;;;4.70;66.10;;;;;;5037914;28;20037;-67
2022/04/18 04:26:13;;;;;;;21.05;12.52;;;4.70;65.90;;;;;;5011859;28;20038;-67
2022/04/18 04:28:38;;;;;;;24.70;12.45;;;4.60;65.90;;;;;;5041748;28;20049;-65
2022/04/18 04:31:04;;;;;;;18.23;11.70;;;4.70;66.10;;;;;;5042583;28;20083;-67
2022/04/18 04:33:32;;;;;;;19.35;12.20;;;4.60;66.30;;;;;;5032246;28;20048;-66
2022/04/18 04:35:59;;;;;;;24.30;12.65;;;4.60;66.40;;;;;;5033421;28;20095;-66
2022/04/18 04:38:25;;;;;;;22.90;13.23;;;4.60;66.10;;;;;;5038138;28;20515;-65
2022/04/18 04:40:55;;;;;;;21.27;12.63;;;4.60;66.30;;;;;;5031016;28;20033;-65
2022/04/18 04:43:21;;;;;;;22.42;13.50;;;4.60;66.40;;;;;;5033427;28;20032;-65
2022/04/18 04:45:47;;;;;;;19.38;11.98;;;4.60;66.50;;;;;;5034305;28;20117;-66
2022/04/18 04:48:12;;;;;;;26.58;13.00;;;4.60;66.30;;;;;;5041447;28;20039;-66
2022/04/18 04:50:39;;;;;;;26.42;13.52;;;4.60;66.50;;;;;;5039057;28;20778;-65
2022/04/18 04:53:05;;;;;;;22.48;12.68;;;4.60;66.40;;;;;;5037966;28;20049;-66
2022/04/18 04:55:31;;;;;;;22.60;13.25;;;4.60;66.30;;;;;;5037340;28;20409;-65
2022/04/18 04:57:56;;;;;;;23.67;13.70;;;4.60;66.70;;;;;;5026406;28;20492;-66
2022/04/18 05:00:22;;;;;;;25.50;13.70;;;4.60;66.40;;;;;;5034755;28;20041;-66
2022/04/18 05:02:47;;;;;;;22.52;13.15;;;4.60;66.50;;;;;;5037037;28;20053;-67
2022/04/18 05:05:14;;;;;;;24.92;13.20;;;4.60;66.60;;;;;;5046705;28;22151;-65
2022/04/18 05:07:39;;;;;;;23.20;12.95;;;4.60;66.70;;;;;;5039123;28;20041;-65
2022/04/18 05:10:05;;;;;;;22.42;12.57;;;4.70;66.50;;;;;;5032521;28;20095;-65
2022/04/18 05:12:32;;;;;;;22.30;13.18;;;4.80;66.00;;;;;;5032923;28;20044;-66
2022/04/18 05:15:02;;;;;;;19.60;12.93;;;4.90;66.00;;;;;;5033507;28;20164;-67
2022/04/18 05:17:28;;;;;;;19.50;12.88;;;5.00;65.80;;;;;;5038132;28;20044;-65
2022/04/18 05:19:53;;;;;;;19.27;12.60;;;5.10;65.50;;;;;;5033493;28;20469;-66
2022/04/18 05:22:19;;;;;;;18.58;12.13;;;5.10;65.30;;;;;;5035750;28;20571;-67
2022/04/18 05:24:44;;;;;;;22.15;12.50;;;5.20;65.20;;;;;;5016993;28;20041;-65
2022/04/18 05:27:15;;;;;;;21.70;12.80;;;5.20;64.90;;;;;;5033382;28;20090;-65
2022/04/18 05:29:41;;;;;;;19.75;11.82;;;5.30;64.80;;;;;;5036281;28;20065;-67
2022/04/18 05:32:07;;;;;;;24.92;12.80;;;5.30;64.70;;;;;;5034419;28;20131;-66
2022/04/18 05:34:32;;;;;;;21.75;12.32;;;5.40;64.70;;;;;;5051113;28;20099;-66
2022/04/18 05:36:58;;;;;;;21.17;12.15;;;5.50;64.40;;;;;;5035130;28;20084;-65
2022/04/18 05:39:23;;;;;;;21.10;12.32;;;5.50;64.40;;;;;;5035480;28;20117;-66
2022/04/18 05:41:49;;;;;;;21.40;11.32;;;5.60;64.40;;;;;;5033492;28;20037;-67
2022/04/18 05:44:14;;;;;;;21.33;11.85;;;5.60;64.60;;;;;;5037297;28;20037;-66
2022/04/18 05:46:40;;;;;;;17.52;11.82;;;5.70;64.40;;;;;;5033153;28;20467;-65
2022/04/18 05:49:05;;;;;;;21.10;11.82;;;5.80;64.40;;;;;;5034725;28;20120;-67
2022/04/18 05:51:32;;;;;;;16.85;11.93;;;5.90;64.40;;;;;;5036300;28;20041;-67
2022/04/18 05:54:00;;;;;;;22.13;12.27;;;6.00;64.00;;;;;;5035070;28;20093;-65
2022/04/18 05:56:26;;;;;;;20.30;12.18;;;6.10;64.00;;;;;;5013218;28;20036;-65
2022/04/18 05:58:51;;;;;;;22.98;12.13;;;6.20;63.90;;;;;;5031255;28;20091;-65
2022/04/18 06:01:17;;;;;;;19.88;11.95;;;6.30;63.70;;;;;;5030512;28;20045;-67
2022/04/18 06:03:43;;;;;;;20.30;12.10;;;6.40;63.50;;;;;;5032371;28;20131;-65
2022/04/18 06:06:08;;;;;;;18.17;11.45;;;6.50;63.30;;;;;;5033808;28;20040;-66
2022/04/18 06:08:34;;;;;;;22.98;12.68;;;6.60;63.00;;;;;;5033272;28;20043;-65
2022/04/18 06:10:59;;;;;;;19.10;12.00;;;6.80;62.80;;;;;;5034068;28;20041;-66
2022/04/18 06:13:25;;;;;;;23.55;12.23;;;6.90;63.20;;;;;;5034392;28;20064;-67
2022/04/18 06:15:52;;;;;;;20.15;11.23;;;7.10;63.10;;;;;;5032216;28;20059;-67
2022/04/18 06:18:19;;;;;;;20.52;12.95;;;7.40;63.10;;;;;;5029234;28;20045;-67
2022/04/18 06:20:44;;;;;;;16.80;11.43;;;7.60;62.90;;;;;;5034800;28;20495;-67
2022/04/18 06:23:10;;;;;;;19.23;12.23;;;7.80;63.20;;;;;;5034081;28;20119;-66
2022/04/18 06:25:36;;;;;;;21.73;12.40;;;8.00;63.20;;;;;;5028592;28;20128;-68
2022/04/18 06:28:01;;;;;;;19.85;12.23;;;8.40;63.60;;;;;;5031581;28;20040;-67
2022/04/18 06:30:27;;;;;;;16.67;12.10;;;8.60;63.70;;;;;;5032240;28;20068;-67
2022/04/18 06:32:52;;;;;;;18.13;11.68;;;8.80;63.00;;;;;;5032059;28;20045;-69
2022/04/18 06:35:19;;;;;;;16.80;11.75;;;9.00;62.80;;;;;;5016486;28;20469;-68
2022/04/18 06:37:44;;;;;;;18.15;11.52;;;9.20;62.70;;;;;;5032703;28;20037;-68
2022/04/18 06:40:10;;;;;;;16.45;11.18;;;9.30;61.90;;;;;;5025791;28;20047;-66
2022/04/18 06:42:38;;;;;;;18.50;11.77;;;9.60;61.80;;;;;;5017204;28;20408;-66
2022/04/18 06:45:04;;;;;;;16.35;10.93;;;9.80;59.80;;;;;;5032308;28;20901;-68
2022/04/18 06:47:30;;;;;;;17.02;11.52;;;9.90;60.10;;;;;;5033180;28;20381;-68
2022/04/18 06:49:55;;;;;;;16.10;10.82;;;10.10;59.20;;;;;;5030040;28;20055;-66
2022/04/18 06:52:22;;;;;;;15.25;11.50;;;10.30;59.90;;;;;;5030636;28;20059;-68
2022/04/18 06:54:48;;;;;;;19.05;11.35;;;10.50;59.40;;;;;;5036214;28;20049;-68
2022/04/18 06:57:14;;;;;;;14.32;10.13;;;10.60;59.30;;;;;;5025510;28;20810;-67
2022/04/18 06:59:41;;;;;;;16.45;10.40;;;10.80;58.50;;;;;;5028844;28;20477;-70
2022/04/18 07:02:08;;;;;;;13.88;10.25;;;11.00;57.60;;;;;;5006617;28;20029;-69
2022/04/18 07:04:34;;;;;;;14.75;10.48;;;11.20;58.10;;;;;;5033372;28;20056;-67
2022/04/18 07:07:00;;;;;;;14.98;10.13;;;11.40;57.00;;;;;;5034015;28;20037;-69
2022/04/18 07:09:26;;;;;;;13.50;9.32;;;11.30;56.10;;;;;;5031290;28;20079;-68
2022/04/18 07:11:51;;;;;;;14.90;10.02;;;11.50;56.30;;;;;;5030361;28;20041;-70
2022/04/18 07:14:17;;;;;;;14.70;8.88;;;11.70;55.90;;;;;;5036774;28;20550;-69
2022/04/18 07:16:43;;;;;;;13.07;9.77;;;11.90;55.70;;;;;;5031994;28;20041;-69
2022/04/18 07:19:10;;;;;;;11.98;8.70;;;12.10;55.60;;;;;;5027755;28;20067;-70
2022/04/18 07:21:35;;;;;;;10.10;8.13;;;12.30;54.80;;;;;;5026861;28;20482;-70
2022/04/18 07:24:02;;;;;;;12.68;9.20;;;12.50;54.70;;;;;;5035209;28;20052;-68
2022/04/18 07:26:27;;;;;;;12.02;8.88;;;12.80;54.60;;;;;;5027719;28;20049;-68
2022/04/18 07:28:53;;;;;;;10.88;8.77;;;13.10;52.60;;;;;;5028495;28;20036;-69
2022/04/18 07:31:19;;;;;;;11.40;8.10;;;13.10;51.40;;;;;;5037236;28;20063;-69
2022/04/18 07:33:44;;;;;;;10.55;7.85;;;13.40;51.10;;;;;;5033863;28;20041;-69
2022/04/18 07:36:10;;;;;;;11.07;8.27;;;13.50;50.20;;;;;;5039049;28;20571;-70
2022/04/18 07:38:51;;;;;;;11.55;8.20;;;13.70;50.50;;;;;;5040137;28;20036;-69
2022/04/18 07:41:18;;;;;;;11.82;7.97;;;13.90;48.50;;;;;;5037647;28;20443;-69
2022/04/18 07:43:44;;;;;;;12.38;8.77;;;14.00;49.50;;;;;;5036651;28;21470;-67
2022/04/18 07:46:10;;;;;;;12.63;8.27;;;14.20;48.50;;;;;;5031998;28;20053;-66
2022/04/18 07:48:36;;;;;;;12.50;8.90;;;14.50;48.50;;;;;;5039242;28;20495;-68
2022/04/18 07:53:46;;;;;;;13.63;8.68;;;14.70;47.80;;;;;;5045326;28;20064;-71
2022/04/18 07:56:12;;;;;;;13.65;8.45;;;14.90;45.20;;;;;;5034371;28;20040;-69
2022/04/18 07:58:38;;;;;;;12.30;8.65;;;15.00;46.50;;;;;;4995491;28;20044;-67
2022/04/18 08:01:04;;;;;;;11.98;8.32;;;15.30;46.60;;;;;;5011997;28;20090;-67
2022/04/18 08:03:34;;;;;;;11.73;8.48;;;15.50;46.20;;;;;;5013877;28;20070;-70
2022/04/18 08:05:59;;;;;;;11.82;8.50;;;15.80;45.10;;;;;;5025489;28;20037;-72
2022/04/18 08:08:25;;;;;;;10.80;8.07;;;15.60;43.70;;;;;;5033704;28;20457;-67
2022/04/18 08:10:51;;;;;;;10.45;8.10;;;15.80;45.40;;;;;;5038042;28;20072;-69
2022/04/18 08:13:17;;;;;;;9.45;7.68;;;16.20;45.60;;;;;;5041945;28;20041;-68
2022/04/18 08:15:43;;;;;;;12.23;7.30;;;16.40;43.60;;;;;;5028515;28;20033;-67
2022/04/18 08:18:08;;;;;;;12.73;7.75;;;16.10;43.90;;;;;;5030812;28;20034;-67
2022/04/18 08:20:34;;;;;;;13.13;8.55;;;16.20;44.30;;;;;;5029523;28;20075;-71
2022/04/18 08:22:59;;;;;;;10.25;7.63;;;16.20;44.40;;;;;;5037298;28;20083;-67
2022/04/18 08:25:25;;;;;;;11.95;7.93;;;16.40;43.80;;;;;;5063504;28;20131;-69
2022/04/18 08:27:51;;;;;;;12.43;8.25;;;16.20;42.50;;;;;;5024675;28;20045;-67
2022/04/18 08:30:17;;;;;;;9.90;7.80;;;16.20;42.70;;;;;;5033463;28;20449;-68
2022/04/18 08:32:42;;;;;;;10.57;8.38;;;16.40;41.80;;;;;;5031137;28;20033;-68
2022/04/18 08:35:10;;;;;;;10.15;7.63;;;16.70;41.30;;;;;;5032566;28;20041;-70
2022/04/18 08:37:36;;;;;;;12.38;8.07;;;16.70;40.60;;;;;;5032028;28;20119;-68
2022/04/18 08:40:06;;;;;;;9.80;7.72;;;16.90;41.10;;;;;;5045269;28;20569;-70
2022/04/18 08:42:37;;;;;;;11.23;7.85;;;17.20;40.20;;;;;;5033990;28;20424;-68
2022/04/18 08:45:05;;;;;;;8.70;7.18;;;17.70;39.00;;;;;;5033690;28;20424;-67
2022/04/18 08:53:02;;;;;;;8.82;7.03;;;19.40;37.00;;;;;;5038043;28;20064;-70
2022/04/18 08:55:29;;;;;;;10.65;6.90;;;20.10;35.30;;;;;;5031807;28;20056;-69
2022/04/18 08:57:55;;;;;;;11.80;7.18;;;20.50;35.70;;;;;;5038247;28;20044;-70
2022/04/18 09:00:20;;;;;;;10.45;7.65;;;21.00;34.90;;;;;;5042395;28;20381;-69
2022/04/18 09:02:46;;;;;;;10.45;6.57;;;21.30;33.80;;;;;;5032922;28;20658;-69
2022/04/18 09:05:13;;;;;;;9.02;7.05;;;21.70;33.50;;;;;;5044345;28;20033;-71
2022/04/18 09:08:00;;;;;;;9.40;7.00;;;21.90;32.80;;;;;;5024391;28;20067;-70
2022/04/18 09:10:26;;;;;;;11.02;6.63;;;21.90;29.20;;;;;;5035254;28;20098;-71
2022/04/18 09:12:52;;;;;;;9.27;6.75;;;22.30;31.30;;;;;;5035909;28;20052;-69
2022/04/18 09:15:41;;;;;;;9.00;7.18;;;22.20;31.40;;;;;;5042387;28;20033;-69
2022/04/18 09:18:07;;;;;;;9.10;6.75;;;22.60;29.20;;;;;;5039455;28;20465;-69
2022/04/18 09:20:41;;;;;;;10.05;6.60;;;22.40;31.10;;;;;;5040492;28;20600;-70
2022/04/18 09:23:19;;;;;;;8.27;6.63;;;22.10;30.60;;;;;;5041897;28;20037;-68
2022/04/18 09:25:45;;;;;;;8.52;6.70;;;21.50;29.50;;;;;;5041988;28;20080;-69
2022/04/18 09:28:11;;;;;;;8.05;6.07;;;20.70;32.40;;;;;;5058748;28;20068;-70
2022/04/18 09:30:37;;;;;;;15.98;5.97;;;20.20;33.50;;;;;;5040424;28;20044;-71
2022/04/18 09:33:04;;;;;;;12.15;5.40;;;19.30;33.30;;;;;;5052131;28;20052;-70
2022/04/18 09:35:30;;;;;;;11.10;6.10;;;19.10;33.10;;;;;;5037802;28;20358;-71
2022/04/18 09:38:08;;;;;;;7.05;5.18;;;19.40;32.50;;;;;;5053406;28;20517;-71
2022/04/18 09:40:36;;;;;;;7.75;5.15;;;19.90;30.00;;;;;;5048694;28;20112;-68
2022/04/18 09:43:02;;;;;;;9.73;4.65;;;20.70;29.90;;;;;;5036213;28;20055;-71
2022/04/18 09:45:27;;;;;;;12.30;5.90;;;21.30;29.30;;;;;;5033634;28;20094;-70
2022/04/18 09:47:55;;;;;;;11.93;5.55;;;21.30;29.00;;;;;;5031169;28;20497;-70
2022/04/18 09:53:14;;;;;;;8.25;5.75;;;20.60;29.70;;;;;;5033268;28;20057;-67
2022/04/18 09:55:44;;;;;;;10.00;5.05;;;20.50;30.20;;;;;;5051807;28;20045;-69
2022/04/18 09:58:11;;;;;;;8.60;5.88;;;19.80;30.80;;;;;;5032550;28;20773;-71
2022/04/18 10:00:37;;;;;;;7.63;5.65;;;20.60;31.10;;;;;;5040812;28;20550;-71
2022/04/18 10:03:03;;;;;;;7.50;5.30;;;21.00;30.00;;;;;;5051514;28;20033;-68
2022/04/18 10:05:28;;;;;;;7.03;5.28;;;22.30;28.80;;;;;;5039674;28;20111;-68
2022/04/18 10:07:55;;;;;;;6.90;5.90;;;23.80;27.80;;;;;;5043375;28;20473;-68
2022/04/18 10:10:21;;;;;;;5.93;4.70;;;24.90;27.00;;;;;;5043943;28;20037;-64
2022/04/18 10:12:46;;;;;;;6.45;5.40;;;25.50;25.90;;;;;;5030073;28;20099;-69
2022/04/18 10:15:12;;;;;;;7.85;5.30;;;25.00;25.70;;;;;;5016496;28;20048;-69
2022/04/18 10:17:40;;;;;;;7.90;5.75;;;25.40;25.80;;;;;;5036360;28;20067;-68
2022/04/18 10:20:08;;;;;;;7.15;5.25;;;25.30;25.80;;;;;;5041188;28;20032;-67
2022/04/18 10:22:40;;;;;;;6.65;5.20;;;25.30;26.10;;;;;;5032985;28;20043;-68
2022/04/18 10:25:37;;;;;;;7.28;5.20;;;25.50;25.60;;;;;;5036308;28;20060;-69
2022/04/18 10:28:17;;;;;;;6.97;6.28;;;25.50;25.30;;;;;;5034295;28;20052;-67
2022/04/18 10:30:59;;;;;;;8.55;6.10;;;25.10;25.50;;;;;;5039591;28;20138;-68
2022/04/18 10:33:25;;;;;;;8.05;5.55;;;25.10;24.90;;;;;;5037457;28;20037;-67
2022/04/18 10:36:00;;;;;;;6.57;5.40;;;24.40;25.70;;;;;;5030892;28;20112;-71
2022/04/18 10:38:27;;;;;;;6.85;5.47;;;23.50;26.10;;;;;;5043022;28;20441;-68
2022/04/18 10:41:14;;;;;;;5.07;4.35;;;23.20;26.90;;;;;;5054295;28;20037;-67
2022/04/18 10:43:58;;;;;;;7.13;4.40;;;22.90;25.50;;;;;;5036257;28;20044;-67
2022/04/18 10:46:24;;;;;;;6.50;4.40;;;22.40;26.50;;;;;;5043034;28;20037;-69
2022/04/18 10:48:57;;;;;;;6.90;4.20;;;21.80;27.30;;;;;;5044814;28;20051;-67
2022/04/18 10:51:33;;;;;;;6.55;4.80;;;21.40;27.70;;;;;;5033381;28;20053;-67
2022/04/18 10:54:13;;;;;;;5.07;4.50;;;21.00;28.20;;;;;;5030663;28;20115;-69
2022/04/18 10:56:58;;;;;;;5.60;4.40;;;20.30;27.20;;;;;;5036538;28;20044;-70
2022/04/18 10:59:26;;;;;;;6.40;4.50;;;20.00;28.70;;;;;;5037822;28;20065;-67
2022/04/18 11:01:54;;;;;;;5.47;4.97;;;19.70;29.00;;;;;;5039904;28;20401;-67
2022/04/18 11:04:25;;;;;;;6.47;4.70;;;19.70;29.10;;;;;;5029866;28;20072;-67
2022/04/18 11:06:56;;;;;;;7.60;4.82;;;19.40;29.50;;;;;;5030715;28;20037;-67
2022/04/18 11:09:23;;;;;;;6.10;4.82;;;19.50;29.20;;;;;;5031238;28;20083;-67
2022/04/18 11:12:01;;;;;;;7.07;5.10;;;19.30;29.30;;;;;;5030237;28;20076;-67
2022/04/18 11:14:48;;;;;;;4.80;4.07;;;19.30;29.40;;;;;;5031100;28;20087;-68
2022/04/18 11:17:23;;;;;;;7.38;5.20;;;19.20;29.30;;;;;;5035937;28;20033;-67
2022/04/18 11:19:49;;;;;;;8.80;4.85;;;19.00;28.60;;;;;;5033920;28;20041;-67
2022/04/18 11:22:14;;;;;;;6.05;4.60;;;18.90;29.20;;;;;;5031852;28;20103;-66
2022/04/18 11:24:49;;;;;;;8.23;4.68;;;18.80;29.10;;;;;;5036651;28;20076;-67
2022/04/18 11:27:29;;;;;;;6.25;4.47;;;18.70;29.20;;;;;;5040021;28;20464;-66
2022/04/18 11:30:00;;;;;;;6.25;4.15;;;18.90;30.20;;;;;;5044844;28;20451;-68
2022/04/18 11:32:31;;;;;;;6.85;4.30;;;18.90;29.70;;;;;;5031396;28;20079;-68
2022/04/18 11:34:59;;;;;;;6.93;4.93;;;18.90;30.60;;;;;;5042815;28;20052;-67
2022/04/18 11:37:31;;;;;;;8.40;4.85;;;18.70;29.40;;;;;;5037128;28;20051;-67
2022/04/18 11:39:59;;;;;;;6.93;4.82;;;19.00;29.70;;;;;;5032561;28;20037;-67
2022/04/18 11:42:27;;;;;;;6.55;4.68;;;18.90;29.00;;;;;;5034143;28;20048;-69
2022/04/18 11:44:55;;;;;;;6.50;4.60;;;18.90;29.20;;;;;;5039655;28;20037;-68
2022/04/18 11:47:23;;;;;;;6.65;4.70;;;18.80;29.20;;;;;;5037343;28;20037;-68
2022/04/18 11:49:58;;;;;;;7.78;5.13;;;18.80;29.50;;;;;;5039603;28;20396;-67
2022/04/18 11:52:26;;;;;;;6.38;5.05;;;19.00;30.40;;;;;;5032973;28;20505;-67
2022/04/18 11:54:54;;;;;;;7.65;5.18;;;19.00;29.40;;;;;;5039829;28;20060;-66
2022/04/18 11:57:20;;;;;;;5.88;4.82;;;18.90;29.30;;;;;;5018586;28;20444;-67
2022/04/18 11:59:49;;;;;;;5.50;4.25;;;19.10;29.50;;;;;;5039993;28;20033;-66
2022/04/18 12:06:44;;;;;;;7.10;5.22;;;19.50;30.30;;;;;;5043382;28;20050;-67
2022/04/18 12:08:05;;;;;;;8.05;4.85;;;19.40;29.50;;;;;;5038139;28;20051;-67
2022/04/18 12:10:35;;;;;;;4.93;4.00;;;19.40;29.10;;;;;;5032652;28;20126;-66
2022/04/18 12:13:07;;;;;;;7.65;4.65;;;19.30;29.20;;;;;;5031532;28;20045;-68
2022/04/18 12:15:34;;;;;;;7.03;4.45;;;19.40;28.90;;;;;;5047299;28;20037;-66
2022/04/18 12:18:12;;;;;;;8.30;4.90;;;19.50;29.10;;;;;;5037203;28;20041;-66
2022/04/18 12:20:49;;;;;;;6.22;5.03;;;19.70;29.20;;;;;;5032248;28;20053;-69
2022/04/18 12:23:23;;;;;;;6.10;4.60;;;19.90;29.10;;;;;;5032775;28;20037;-67
2022/04/18 12:25:52;;;;;;;6.03;4.30;;;20.00;28.40;;;;;;5039057;28;20768;-68
2022/04/18 12:28:23;;;;;;;6.20;4.80;;;20.00;28.70;;;;;;5042239;28;20365;-69
2022/04/18 12:30:50;;;;;;;7.32;4.30;;;20.10;27.60;;;;;;5045577;28;20041;-66
2022/04/18 12:33:19;;;;;;;5.80;4.00;;;20.40;28.10;;;;;;5040081;28;20092;-66
2022/04/18 12:35:48;;;;;;;5.45;4.15;;;20.20;27.90;;;;;;5046029;28;20159;-67
2022/04/18 12:38:16;;;;;;;7.60;4.40;;;20.20;27.90;;;;;;5046349;28;20091;-67
2022/04/18 12:40:43;;;;;;;6.13;4.38;;;20.40;28.00;;;;;;5036972;28;20396;-68
2022/04/18 12:43:10;;;;;;;4.93;4.28;;;20.90;28.80;;;;;;5043745;28;20049;-66
2022/04/18 12:45:49;;;;;;;6.00;4.50;;;21.60;28.40;;;;;;5043488;28;20409;-69
2022/04/18 12:48:27;;;;;;;6.53;4.35;;;23.00;26.50;;;;;;5047862;28;20163;-67
2022/04/18 12:50:54;;;;;;;6.18;4.43;;;23.80;26.70;;;;;;5057547;28;20090;-68
2022/04/18 12:53:21;;;;;;;6.25;4.28;;;23.90;25.20;;;;;;5043007;28;20057;-68
2022/04/18 12:55:47;;;;;;;5.55;4.50;;;24.00;24.30;;;;;;5049447;28;20060;-67
2022/04/18 12:58:18;;;;;;;4.70;3.92;;;24.20;24.30;;;;;;5046093;28;20041;-67
2022/04/18 13:00:46;;;;;;;4.70;3.90;;;25.30;23.50;;;;;;5044529;28;20084;-67
2022/04/18 13:03:13;;;;;;;9.50;4.13;;;26.70;23.00;;;;;;5021161;28;20508;-69
2022/04/18 13:05:44;;;;;;;7.53;4.38;;;28.60;22.90;;;;;;5042481;28;20053;-68
2022/04/18 13:08:11;;;;;;;5.20;4.07;;;29.70;21.60;;;;;;5049505;28;20152;-68